Time;durP1;ratioP1;P1;durP2;ratioP2;P2;SDS_P1;SDS_P2;PMS_P1;PMS_P2;Temp;Humidity;BMP_temperature;BMP_pressure;BME280_temperature;BME280_humidity;BME280_pressure;Samples;Min_cycle;Max_cycle;Signal;HPM_P1;HPM_P2
2022/12/22 03:26:27;;;;;;;36.80;22.80;;;;;;;0.42;100.00;99413.64;1721034;82;21113;-64
2022/12/22 03:28:54;;;;;;;37.28;23.15;;;;;;;0.49;100.00;99411.75;1727078;82;21580;-64
2022/12/22 03:31:20;;;;;;;39.00;24.25;;;;;;;0.55;100.00;99410.56;1728396;82;21023;-64
2022/12/22 03:33:47;;;;;;;41.15;25.25;;;;;;;0.54;100.00;99408.91;1731484;82;21090;-64
2022/12/22 03:36:13;;;;;;;38.25;23.60;;;;;;;0.52;100.00;99411.83;1725456;82;21023;-64
2022/12/22 03:38:40;;;;;;;37.03;22.60;;;;;;;0.55;100.00;99408.71;1726261;82;21542;-65
2022/12/22 03:41:06;;;;;;;34.33;21.45;;;;;;;0.64;100.00;99414.65;1721360;82;21074;-64
2022/12/22 03:46:30;;;;;;;35.75;21.07;;;;;;;0.62;100.00;99405.98;1723521;82;21047;-64
2022/12/22 03:49:10;;;;;;;34.35;21.07;;;;;;;0.62;100.00;99407.33;1734027;82;21059;-64
2022/12/22 03:51:49;;;;;;;37.10;22.93;;;;;;;0.70;100.00;99396.37;1722779;82;21078;-65
2022/12/22 03:54:19;;;;;;;38.38;23.52;;;;;;;0.70;100.00;99405.73;1727386;81;21063;-64
2022/12/22 03:56:45;;;;;;;37.65;23.40;;;;;;;0.64;100.00;99401.25;1725287;82;21012;-64
2022/12/22 03:59:12;;;;;;;34.83;22.87;;;;;;;0.61;100.00;99401.66;1733048;82;21015;-64
2022/12/22 04:01:41;;;;;;;;;;;;;;;0.63;100.00;99399.60;1733177;82;21082;-64
2022/12/22 04:04:08;;;;;;;39.83;21.95;;;;;;;0.69;100.00;99392.86;1726486;82;20114;-64
2022/12/22 04:06:35;;;;;;;36.30;22.40;;;;;;;0.65;100.00;99399.69;1721668;82;21078;-64
2022/12/22 04:09:02;;;;;;;35.78;22.15;;;;;;;0.60;100.00;99407.56;1730770;82;21083;-64
2022/12/22 04:14:13;;;;;;;37.10;22.50;;;;;;;0.58;100.00;99394.89;1738711;82;21023;-64
2022/12/22 04:16:40;;;;;;;38.53;21.82;;;;;;;0.62;100.00;99389.91;1727707;82;21118;-64
2022/12/22 04:19:07;;;;;;;35.15;22.65;;;;;;;0.61;100.00;99391.77;1729621;82;20984;-64
2022/12/22 04:21:35;;;;;;;34.50;22.52;;;;;;;0.58;100.00;99392.72;1724529;82;21098;-64
2022/12/22 04:24:01;;;;;;;35.83;22.93;;;;;;;0.56;100.00;99397.48;1726538;82;21082;-64
2022/12/22 04:26:28;;;;;;;33.13;21.80;;;;;;;0.61;100.00;99398.98;1720777;82;21525;-64
2022/12/22 04:28:54;;;;;;;;;;;;;;;0.70;100.00;99392.34;1731066;82;21126;-64
2022/12/22 04:31:21;;;;;;;37.75;22.60;;;;;;;0.65;100.00;99387.62;1724972;81;20090;-64
2022/12/22 04:33:48;;;;;;;40.55;22.70;;;;;;;0.54;100.00;99386.97;1730982;82;21027;-64
2022/12/22 04:36:14;;;;;;;38.40;22.67;;;;;;;0.54;100.00;99379.45;1739056;82;21474;-65
2022/12/22 04:38:41;;;;;;;36.93;23.47;;;;;;;0.62;100.00;99377.86;1724518;82;21070;-64
2022/12/22 04:41:07;;;;;;;;;;;;;;;0.65;100.00;99376.09;1744645;82;21002;-65
2022/12/22 04:43:34;;;;;;;36.77;22.20;;;;;;;0.62;100.00;99373.84;1727193;81;20106;-64
2022/12/22 04:46:00;;;;;;;37.48;23.02;;;;;;;0.49;100.00;99363.53;1724575;82;21066;-65
2022/12/22 04:48:27;;;;;;;36.83;21.90;;;;;;;0.52;100.00;99366.30;1734778;82;21059;-64
2022/12/22 04:50:55;;;;;;;36.83;23.02;;;;;;;0.59;100.00;99364.91;1742167;82;21068;-64
2022/12/22 04:53:22;;;;;;;36.20;23.45;;;;;;;0.60;100.00;99374.08;1729766;82;21573;-64
2022/12/22 04:55:52;;;;;;;35.95;22.42;;;;;;;0.61;100.00;99370.86;1727611;82;21007;-64
2022/12/22 04:58:19;;;;;;;36.15;23.00;;;;;;;0.61;100.00;99377.55;1723055;82;21138;-65
2022/12/22 05:00:45;;;;;;;33.53;22.13;;;;;;;0.66;100.00;99376.40;1730488;82;20988;-64
2022/12/22 05:03:12;;;;;;;34.45;21.50;;;;;;;0.72;100.00;99374.19;1733844;82;21039;-64
2022/12/22 05:05:38;;;;;;;34.65;22.37;;;;;;;0.72;100.00;99382.22;1734868;82;21031;-65
2022/12/22 05:08:05;;;;;;;;;;;;;;;0.70;100.00;99376.27;1737478;82;21134;-64
2022/12/22 05:10:32;;;;;;;36.25;21.95;;;;;;;0.70;100.00;99384.31;1725295;81;20415;-64
2022/12/22 05:12:59;;;;;;;;;;;;;;;0.72;100.00;99398.30;1727249;82;21043;-64
2022/12/22 05:15:34;;;;;;;32.63;20.75;;;;;;;0.76;100.00;99400.84;1740262;82;20209;-64
2022/12/22 05:18:00;;;;;;;38.28;20.80;;;;;;;0.63;100.00;99408.47;1727320;82;21078;-65
2022/12/22 05:20:27;;;;;;;;;;;;;;;0.61;100.00;99410.52;1733544;82;20979;-64
2022/12/22 05:22:53;;;;;;;36.35;21.97;;;;;;;0.67;100.00;99402.98;1721974;81;20447;-64
2022/12/22 05:25:20;;;;;;;33.73;21.15;;;;;;;0.68;100.00;99399.24;1714830;82;21047;-65
2022/12/22 05:27:48;;;;;;;33.42;20.97;;;;;;;0.68;100.00;99385.02;1728041;82;21130;-64
2022/12/22 05:30:16;;;;;;;34.55;22.13;;;;;;;0.69;100.00;99386.67;1721588;82;21419;-64
2022/12/22 05:32:42;;;;;;;37.17;21.68;;;;;;;0.73;100.00;99377.17;1691579;82;21095;-64
2022/12/22 05:35:09;;;;;;;35.25;22.10;;;;;;;0.76;100.00;99382.09;1723878;82;21490;-64
2022/12/22 05:37:36;;;;;;;37.08;22.77;;;;;;;0.76;100.00;99380.75;1717890;82;21130;-64
2022/12/22 05:40:03;;;;;;;37.50;22.82;;;;;;;0.70;100.00;99391.83;1721848;82;22117;-64
2022/12/22 05:42:36;;;;;;;35.08;22.73;;;;;;;0.68;100.00;99393.06;1721965;82;21087;-64
2022/12/22 05:45:19;;;;;;;34.15;22.40;;;;;;;0.66;100.00;99401.84;1711264;82;21030;-64
2022/12/22 05:47:48;;;;;;;35.68;23.02;;;;;;;0.72;100.00;99399.12;1716713;82;21072;-64
2022/12/22 05:50:17;;;;;;;35.55;23.20;;;;;;;0.75;100.00;99393.33;1721418;82;21022;-64
2022/12/22 05:52:43;;;;;;;34.98;22.52;;;;;;;0.74;100.00;99397.58;1720708;82;21041;-64
2022/12/22 05:55:10;;;;;;;34.92;22.80;;;;;;;0.69;100.00;99393.38;1723173;82;21537;-65
2022/12/22 05:57:37;;;;;;;36.58;23.25;;;;;;;0.68;100.00;99391.72;1717284;82;21067;-64
2022/12/22 06:00:07;;;;;;;36.63;24.90;;;;;;;0.71;100.00;99396.67;1713322;82;21078;-64
2022/12/22 06:02:36;;;;;;;35.10;23.10;;;;;;;0.69;100.00;99398.22;1718260;82;21063;-65
2022/12/22 06:05:04;;;;;;;34.10;22.45;;;;;;;0.67;100.00;99407.52;1720237;82;21067;-64
2022/12/22 06:07:32;;;;;;;37.83;22.48;;;;;;;0.66;100.00;99415.24;1683434;82;21071;-64
2022/12/22 06:09:59;;;;;;;40.00;22.58;;;;;;;0.69;100.00;99421.50;1720608;82;21035;-65
2022/12/22 06:12:25;;;;;;;37.05;22.07;;;;;;;0.72;100.00;99423.23;1720519;82;21075;-65
2022/12/22 06:14:52;;;;;;;36.35;23.35;;;;;;;0.73;100.00;99428.08;1714939;82;21002;-66
2022/12/22 06:17:19;;;;;;;37.53;23.47;;;;;;;0.69;100.00;99434.90;1717940;82;21083;-65
2022/12/22 06:19:46;;;;;;;;;;;;;;;0.66;100.00;99438.84;1717066;82;21059;-66
2022/12/22 06:22:12;;;;;;;34.27;22.15;;;;;;;0.70;100.00;99436.03;1721618;82;20105;-65
2022/12/22 06:24:39;;;;;;;35.60;22.42;;;;;;;0.72;100.00;99435.29;1717441;82;20983;-65
2022/12/22 06:27:05;;;;;;;35.55;22.48;;;;;;;0.72;100.00;99447.34;1721914;82;21593;-66
2022/12/22 06:29:31;;;;;;;37.50;23.38;;;;;;;0.71;100.00;99448.92;1724393;82;21007;-65
2022/12/22 06:31:58;;;;;;;36.13;23.00;;;;;;;0.74;100.00;99441.78;1725682;82;20999;-65
2022/12/22 06:34:24;;;;;;;35.75;23.25;;;;;;;0.82;100.00;99441.51;1710355;82;21055;-66
2022/12/22 06:36:50;;;;;;;35.75;23.32;;;;;;;0.84;100.00;99439.45;1733201;82;21020;-65
2022/12/22 06:39:17;;;;;;;36.70;23.10;;;;;;;0.81;100.00;99444.73;1721170;82;21055;-65
2022/12/22 06:44:30;;;;;;;35.80;23.22;;;;;;;0.82;100.00;99438.83;1717640;82;21020;-65
2022/12/22 06:46:56;;;;;;;36.53;23.60;;;;;;;0.85;100.00;99440.55;1722268;82;21487;-64
2022/12/22 06:49:22;;;;;;;38.92;23.80;;;;;;;0.89;100.00;99437.75;1714542;82;21078;-64
2022/12/22 06:51:48;;;;;;;31.57;22.05;;;;;;;0.86;100.00;99437.36;1719960;82;20996;-65
2022/12/22 06:54:15;;;;;;;35.92;21.95;;;;;;;0.82;100.00;99442.84;1713232;82;21063;-64
2022/12/22 06:56:41;;;;;;;37.63;22.90;;;;;;;0.83;100.00;99437.80;1730578;82;21062;-64
2022/12/22 06:59:08;;;;;;;36.60;22.80;;;;;;;0.88;100.00;99437.98;1731012;81;21532;-65
2022/12/22 07:01:34;;;;;;;35.50;22.20;;;;;;;0.93;100.00;99444.84;1724047;82;21036;-65
2022/12/22 07:04:01;;;;;;;34.60;22.60;;;;;;;0.95;100.00;99450.82;1731770;82;21095;-65
2022/12/22 07:06:28;;;;;;;35.90;22.73;;;;;;;0.93;100.00;99442.98;1675380;85;21544;-65
2022/12/22 07:08:54;;;;;;;36.85;22.82;;;;;;;0.96;100.00;99455.13;1698104;84;21158;-65
2022/12/22 07:11:20;;;;;;;35.28;23.55;;;;;;;1.02;100.00;99454.28;1675710;84;21051;-65
2022/12/22 07:13:47;;;;;;;;;;;;;;;1.07;100.00;99450.92;1679072;84;21114;-65
2022/12/22 07:16:14;;;;;;;38.17;22.70;;;;;;;1.08;100.00;99454.73;1686756;84;20158;-65
2022/12/22 07:18:41;;;;;;;37.48;23.83;;;;;;;1.05;100.00;99453.02;1678510;84;21605;-64
2022/12/22 07:21:10;;;;;;;35.50;22.45;;;;;;;1.08;100.00;99449.38;1676184;84;21043;-64
2022/12/22 07:23:36;;;;;;;35.35;22.73;;;;;;;1.13;100.00;99449.56;1686805;83;21070;-64
2022/12/22 07:26:04;;;;;;;35.75;23.15;;;;;;;1.15;100.00;99445.30;1680079;84;21059;-65
2022/12/22 07:28:35;;;;;;;38.95;25.02;;;;;;;1.13;100.00;99458.95;1683401;84;21094;-65
2022/12/22 07:31:02;;;;;;;35.10;23.25;;;;;;;1.14;100.00;99465.92;1690202;84;21003;-64
2022/12/22 07:33:28;;;;;;;;;;;;;;;1.15;100.00;99445.30;1684225;84;21589;-64
2022/12/22 07:39:17;;;;;;;39.83;25.17;;;;;;;1.21;100.00;99464.02;1678149;83;21676;-74
2022/12/22 07:44:28;;;;;;;41.15;26.05;;;;;;;1.32;100.00;99475.38;1673959;83;20188;-74
2022/12/22 07:46:55;;;;;;;38.00;23.67;;;;;;;1.41;100.00;99477.28;1680037;83;21095;-75
2022/12/22 07:52:07;;;;;;;38.83;23.32;;;;;;;1.51;100.00;99465.54;1689301;85;21106;-75
2022/12/22 07:54:34;;;;;;;36.98;23.45;;;;;;;1.54;100.00;99469.12;1684534;85;21007;-76
2022/12/22 07:57:00;;;;;;;33.83;22.15;;;;;;;1.63;100.00;99462.42;1681144;83;21006;-75
2022/12/22 07:59:27;;;;;;;34.60;23.95;;;;;;;1.75;100.00;99462.52;1683728;83;21061;-75
2022/12/22 08:01:53;;;;;;;37.23;24.98;;;;;;;1.87;100.00;99463.45;1677559;85;21596;-75
2022/12/22 08:04:21;;;;;;;41.45;27.00;;;;;;;1.97;100.00;99466.44;1679808;85;21023;-75
2022/12/22 08:06:47;;;;;;;37.67;24.18;;;;;;;2.05;100.00;99468.84;1683229;84;21050;-74
2022/12/22 08:09:16;;;;;;;35.50;23.95;;;;;;;2.09;100.00;99469.20;1689905;84;21062;-74
2022/12/22 08:11:42;;;;;;;37.63;23.85;;;;;;;2.16;100.00;99461.90;1678500;83;21038;-75
2022/12/22 08:14:08;;;;;;;38.23;23.70;;;;;;;2.26;100.00;99460.33;1674054;84;21062;-73
2022/12/22 08:16:36;;;;;;;40.52;27.17;;;;;;;2.32;100.00;99456.73;1676208;84;21095;-73
2022/12/22 08:19:03;;;;;;;36.88;25.97;;;;;;;2.30;100.00;99457.47;1686216;84;21109;-73
2022/12/22 08:21:29;;;;;;;40.08;27.25;;;;;;;2.30;100.00;99453.44;1686243;84;21574;-73
2022/12/22 08:23:55;;;;;;;35.40;25.72;;;;;;;2.31;100.00;99446.20;1685996;84;21094;-73
2022/12/22 08:26:36;;;;;;;35.88;23.75;;;;;;;2.40;100.00;99453.75;1679773;84;21042;-73
2022/12/22 08:29:10;;;;;;;37.08;26.48;;;;;;;2.43;100.00;99441.72;1668499;84;21058;-73
2022/12/22 08:31:36;;;;;;;39.27;24.82;;;;;;;2.41;100.00;99433.88;1686542;84;21018;-73
2022/12/22 08:34:05;;;;;;;37.05;24.85;;;;;;;2.38;100.00;99425.45;1678561;85;21130;-73
2022/12/22 08:36:34;;;;;;;34.00;23.22;;;;;;;2.40;100.00;99429.58;1685934;83;21028;-73
2022/12/22 08:39:00;;;;;;;36.55;23.80;;;;;;;2.49;100.00;99422.00;1684719;84;21133;-74
2022/12/22 08:44:12;;;;;;;32.28;22.82;;;;;;;2.56;100.00;99419.22;1667294;85;21596;-74
2022/12/22 08:46:39;;;;;;;;;;;;;;;2.54;100.00;99406.55;1683931;83;21090;-73
2022/12/22 08:49:05;;;;;;;35.65;23.87;;;;;;;2.54;100.00;99414.61;1678634;85;20128;-74
2022/12/22 08:51:32;;;;;;;35.05;23.98;;;;;;;2.57;100.00;99409.61;1665889;85;21055;-72
2022/12/22 08:53:59;;;;;;;37.20;25.80;;;;;;;2.65;100.00;99412.50;1663465;83;21102;-74
2022/12/22 08:56:25;;;;;;;35.35;23.95;;;;;;;2.71;100.00;99410.23;1677103;85;21067;-74
2022/12/22 08:58:52;;;;;;;;;;;;;;;2.70;100.00;99419.33;1674205;85;21158;-74
2022/12/22 09:01:19;;;;;;;37.38;24.95;;;;;;;2.69;100.00;99415.03;1661126;85;20100;-74
2022/12/22 09:03:51;;;;;;;37.05;24.65;;;;;;;2.59;100.00;99414.77;1673292;85;21951;-74
2022/12/22 09:06:21;;;;;;;38.63;25.80;;;;;;;2.61;100.00;99417.52;1677179;85;21842;-73
2022/12/22 09:08:47;;;;;;;33.73;23.60;;;;;;;2.73;100.00;99412.19;1669865;85;21628;-74
2022/12/22 09:11:15;;;;;;;;;;;;;;;2.75;100.00;99415.45;1663469;85;21122;-74
2022/12/22 09:13:42;;;;;;;35.05;23.12;;;;;;;2.76;100.00;99410.38;1672789;85;20115;-74
2022/12/22 09:16:08;;;;;;;43.05;28.70;;;;;;;2.67;100.00;99405.84;1669055;85;21067;-74
2022/12/22 09:18:35;;;;;;;41.40;25.43;;;;;;;2.68;100.00;99410.70;1673339;83;21094;-74
2022/12/22 09:21:01;;;;;;;39.00;24.80;;;;;;;2.74;100.00;99411.11;1671304;83;21356;-74
2022/12/22 09:23:30;;;;;;;33.75;22.62;;;;;;;2.79;100.00;99399.16;1667361;85;21126;-74
2022/12/22 09:25:57;;;;;;;38.35;24.82;;;;;;;2.85;100.00;99400.41;1675880;85;21005;-74
2022/12/22 09:28:23;;;;;;;38.50;24.67;;;;;;;2.86;100.00;99396.67;1669947;85;21061;-74
2022/12/22 09:30:52;;;;;;;34.55;24.12;;;;;;;2.91;100.00;99408.06;1668132;85;21532;-74
2022/12/22 09:33:18;;;;;;;35.08;24.00;;;;;;;2.93;100.00;99401.43;1683887;85;21631;-75
2022/12/22 09:35:45;;;;;;;37.13;24.35;;;;;;;2.90;100.00;99407.27;1672665;83;21099;-75
2022/12/22 09:38:11;;;;;;;32.58;22.70;;;;;;;3.03;100.00;99418.85;1670250;83;21099;-74
2022/12/22 09:40:38;;;;;;;31.42;20.75;;;;;;;3.12;100.00;99413.45;1685669;83;21065;-74
2022/12/22 09:43:05;;;;;;;35.05;22.87;;;;;;;3.15;100.00;99421.05;1675636;83;21612;-74
2022/12/22 09:45:32;;;;;;;32.08;22.75;;;;;;;3.14;100.00;99420.23;1677584;85;21096;-74
2022/12/22 09:47:59;;;;;;;34.23;24.55;;;;;;;3.14;100.00;99412.69;1671288;83;21086;-74
2022/12/22 09:50:26;;;;;;;34.08;22.02;;;;;;;3.19;100.00;99418.20;1632058;86;21027;-74
2022/12/22 09:53:01;;;;;;;31.05;22.87;;;;;;;3.29;100.00;99427.86;1681100;84;21104;-74
2022/12/22 09:55:41;;;;;;;35.43;23.98;;;;;;;3.31;100.00;99421.70;1687409;83;21060;-74
2022/12/22 09:58:34;;;;;;;67.97;40.25;;;;;;;3.28;100.00;99420.83;1681961;84;21094;-75
2022/12/22 10:01:35;;;;;;;45.73;30.97;;;;;;;3.23;100.00;99418.83;1682806;83;21015;-74
2022/12/22 10:04:13;;;;;;;43.48;29.72;;;;;;;3.20;100.00;99423.85;1689464;85;21640;-75
2022/12/22 10:06:52;;;;;;;49.67;30.52;;;;;;;3.25;100.00;99419.95;1668635;84;21067;-75
2022/12/22 10:09:22;;;;;;;48.58;31.87;;;;;;;3.30;100.00;99421.41;1677874;85;21134;-74
2022/12/22 10:11:56;;;;;;;52.23;33.90;;;;;;;3.26;100.00;99414.33;1662167;85;21023;-74
2022/12/22 10:14:38;;;;;;;52.45;32.83;;;;;;;3.22;100.00;99413.17;1674212;85;21120;-75
2022/12/22 10:17:23;;;;;;;39.58;25.82;;;;;;;3.21;100.00;99411.53;1677133;85;21050;-75
2022/12/22 10:19:53;;;;;;;35.20;22.07;;;;;;;3.24;100.00;99410.23;1670605;85;21082;-74
2022/12/22 10:22:37;;;;;;;30.00;20.27;;;;;;;3.25;100.00;99407.33;1678885;85;21047;-75
2022/12/22 10:25:05;;;;;;;34.08;22.52;;;;;;;3.16;100.00;99397.94;1662439;85;21063;-74
2022/12/22 10:27:33;;;;;;;37.73;24.72;;;;;;;3.10;100.00;99399.41;1673230;85;21100;-74
2022/12/22 10:30:20;;;;;;;33.80;23.12;;;;;;;3.10;100.00;99390.81;1682836;83;21052;-74
2022/12/22 10:33:10;;;;;;;35.80;23.60;;;;;;;3.18;100.00;99389.66;1675067;85;21637;-74
2022/12/22 20:28:23;;;;;;;133.27;66.90;;;;;;;0.79;100.00;99292.72;1794977;78;22910;-71
2022/12/22 20:30:49;;;;;;;126.60;63.28;;;;;;;0.86;100.00;99300.18;1761045;80;21062;-71
2022/12/22 20:33:18;;;;;;;100.18;55.38;;;;;;;1.07;100.00;99299.47;1747127;82;21026;-71
2022/12/22 20:35:45;;;;;;;87.72;49.60;;;;;;;1.25;100.00;99298.16;1727992;82;21014;-72
2022/12/22 20:38:16;;;;;;;78.83;45.73;;;;;;;1.41;100.00;99296.24;1731993;82;21109;-72
2022/12/22 20:49:14;;;;;;;81.12;45.90;;;;;;;1.85;100.00;99292.39;1824800;75;76196;-74
2022/12/22 20:51:40;;;;;;;72.92;45.15;;;;;;;1.91;100.00;99295.54;1801771;78;20953;-74
2022/12/22 20:54:08;;;;;;;73.30;45.17;;;;;;;2.02;100.00;99301.45;1800046;78;21442;-74
2022/12/22 20:56:36;;;;;;;78.75;46.98;;;;;;;2.06;100.00;99306.67;1793858;80;21523;-74
2022/12/22 20:59:16;;;;;;;75.03;46.42;;;;;;;2.06;100.00;99301.30;1792638;79;21045;-74
2022/12/22 21:01:44;;;;;;;73.28;44.35;;;;;;;2.13;100.00;99298.00;1764589;80;20990;-75
2022/12/22 21:04:13;;;;;;;68.87;42.40;;;;;;;2.21;100.00;99297.69;1747716;81;21133;-74
2022/12/22 21:06:47;;;;;;;72.12;45.20;;;;;;;2.23;100.00;99292.11;1703113;83;21483;-74
2022/12/22 21:09:14;;;;;;;71.77;45.00;;;;;;;2.23;100.00;99288.87;1774785;80;21556;-74
2022/12/22 21:11:43;;;;;;;70.47;45.00;;;;;;;2.20;100.00;99290.67;1728629;81;21016;-75
2022/12/22 21:14:09;;;;;;;71.62;43.80;;;;;;;2.25;100.00;99288.66;1731740;81;21050;-74
2022/12/22 21:16:36;;;;;;;70.67;42.48;;;;;;;2.31;100.00;99285.87;1758293;81;21520;-75
2022/12/22 21:19:03;;;;;;;66.97;41.23;;;;;;;2.32;100.00;99275.95;1724872;81;21095;-74
2022/12/22 21:21:29;;;;;;;71.95;44.23;;;;;;;2.25;100.00;99272.54;1750881;81;20982;-74
2022/12/22 21:23:56;;;;;;;68.55;43.23;;;;;;;2.21;100.00;99276.73;1714613;83;21604;-74
2022/12/22 21:26:34;;;;;;;;;;;;;;;2.22;100.00;99280.54;1723287;82;21026;-74
2022/12/22 21:29:04;;;;;;;69.27;42.20;;;;;;;2.26;100.00;99285.75;1691124;83;20300;-74
2022/12/22 21:31:31;;;;;;;71.35;42.55;;;;;;;2.23;100.00;99286.19;1749632;80;20974;-74
2022/12/22 21:33:57;;;;;;;72.90;44.60;;;;;;;2.19;100.00;99276.97;1720066;81;21087;-75
2022/12/22 21:36:28;;;;;;;68.22;43.58;;;;;;;2.17;100.00;99272.34;1724923;81;21083;-74
2022/12/22 21:38:57;;;;;;;69.87;42.62;;;;;;;2.20;100.00;99271.88;1767746;80;21551;-74
2022/12/22 21:41:58;;;;;;;65.57;42.00;;;;;;;2.29;100.00;99270.52;1727461;82;21616;-74
2022/12/22 21:43:52;;;;;;;72.22;44.95;;;;;;;2.34;100.00;99269.28;1774931;80;21077;-74
2022/12/22 22:13:26;;;;;;;85.40;47.13;;;;;;;1.08;100.00;99240.80;1780430;79;22743;-71
2022/12/22 22:15:52;;;;;;;88.37;48.73;;;;;;;1.10;100.00;99253.48;1746723;82;21057;-71
2022/12/22 22:18:19;;;;;;;79.27;45.12;;;;;;;1.27;100.00;99256.69;1725197;82;21070;-71
2022/12/22 22:20:45;;;;;;;72.58;42.05;;;;;;;1.42;100.00;99245.56;1733199;82;20979;-71
2022/12/22 22:23:13;;;;;;;;;;;;;;;1.54;100.00;99246.97;1746897;82;21093;-71
2022/12/22 22:25:39;;;;;;;66.53;40.80;;;;;;;1.62;100.00;99246.16;1742732;82;20187;-71
2022/12/22 22:28:06;;;;;;;73.35;43.63;;;;;;;1.61;100.00;99248.53;1727544;82;21039;-71
2022/12/22 22:30:33;;;;;;;71.87;42.60;;;;;;;1.66;100.00;99251.89;1741010;82;21712;-71
2022/12/22 22:33:00;;;;;;;63.73;40.65;;;;;;;1.78;100.00;99251.41;1724068;82;21106;-71
2022/12/22 22:35:26;;;;;;;66.95;42.20;;;;;;;1.91;100.00;99244.54;1727542;82;21077;-71
2022/12/22 22:37:54;;;;;;;65.65;41.42;;;;;;;1.95;100.00;99242.48;1724639;82;21090;-71
2022/12/22 22:40:21;;;;;;;66.97;41.90;;;;;;;1.92;100.00;99242.12;1697710;83;21501;-71
2022/12/22 22:42:48;;;;;;;68.30;40.38;;;;;;;1.88;100.00;99239.08;1733602;82;21109;-71
2022/12/22 22:45:22;;;;;;;67.17;40.83;;;;;;;1.91;100.00;99235.94;1735355;82;21074;-71
2022/12/22 22:47:46;;;;;;;67.40;40.58;;;;;;;2.00;100.00;99231.91;1727433;82;21050;-71
2022/12/22 22:50:12;;;;;;;67.37;40.00;;;;;;;2.02;100.00;99234.89;1736442;82;21046;-71
2022/12/22 22:52:39;;;;;;;;;;;;;;;1.98;100.00;99238.55;1729562;82;21149;-72
2022/12/22 22:55:06;;;;;;;63.25;40.05;;;;;;;1.94;100.00;99236.03;1726228;82;20423;-71
2022/12/22 22:57:33;;;;;;;66.40;41.33;;;;;;;1.80;100.00;99234.57;1728266;82;21519;-72
2022/12/22 22:59:59;;;;;;;69.77;41.98;;;;;;;1.82;100.00;99225.76;1733440;81;21050;-71
2022/12/22 23:02:26;;;;;;;64.05;39.60;;;;;;;1.91;100.00;99227.09;1724609;82;21648;-71
2022/12/22 23:04:53;;;;;;;;;;;;;;;1.99;100.00;99220.03;1732900;82;21005;-72
2022/12/22 23:07:19;;;;;;;66.55;40.67;;;;;;;2.00;100.00;99214.45;1733419;82;20422;-71
2022/12/22 23:09:45;;;;;;;;;;;;;;;1.89;100.00;99209.03;1747185;82;21026;-71
2022/12/22 23:12:12;;;;;;;65.03;41.40;;;;;;;1.86;100.00;99217.55;1721655;81;20141;-71
2022/12/22 23:14:38;;;;;;;;;;;;;;;1.77;100.00;99208.19;1735134;82;21070;-72
2022/12/22 23:17:05;;;;;;;68.92;41.63;;;;;;;1.79;100.00;99208.25;1725698;82;20409;-71
2022/12/22 23:19:31;;;;;;;65.40;41.02;;;;;;;1.83;100.00;99215.33;1729301;82;21526;-72
2022/12/22 23:21:58;;;;;;;66.02;40.80;;;;;;;1.86;100.00;99207.64;1721306;82;21035;-71
2022/12/22 23:24:24;;;;;;;68.00;42.00;;;;;;;1.88;100.00;99198.81;1724672;82;21494;-72
2022/12/22 23:26:51;;;;;;;66.85;39.70;;;;;;;1.89;100.00;99205.02;1715514;82;21161;-71
2022/12/22 23:29:17;;;;;;;;;;;;;;;1.87;100.00;99192.36;1721165;82;21470;-72
2022/12/22 23:31:44;;;;;;;68.05;40.15;;;;;;;1.88;100.00;99195.31;1713982;82;20166;-71
2022/12/22 23:34:11;;;;;;;63.80;39.63;;;;;;;1.88;100.00;99194.79;1707768;82;21548;-72
2022/12/22 23:36:37;;;;;;;59.15;37.23;;;;;;;1.92;100.00;99190.61;1713577;82;21130;-71
2022/12/22 23:39:04;;;;;;;63.38;39.78;;;;;;;1.92;100.00;99185.23;1723443;82;21004;-72
2022/12/22 23:41:31;;;;;;;64.10;39.53;;;;;;;1.87;100.00;99182.96;1726850;82;21189;-71
2022/12/22 23:43:59;;;;;;;63.02;40.30;;;;;;;1.83;100.00;99169.19;1728528;82;21039;-71
2022/12/22 23:46:25;;;;;;;62.03;38.88;;;;;;;1.83;100.00;99173.73;1729577;82;21055;-71
2022/12/22 23:48:53;;;;;;;;;;;;;;;1.85;100.00;99172.44;1726821;82;21490;-72
2022/12/22 23:51:21;;;;;;;;;;;;;;;1.85;100.00;99176.47;1737742;82;20142;-71
2022/12/22 23:53:47;;;;;;;60.45;36.08;;;;;;;1.79;100.00;99169.86;1725602;82;20440;-71
2022/12/22 23:56:14;;;;;;;61.10;37.65;;;;;;;1.68;100.00;99171.98;1725505;82;21032;-71
2022/12/22 23:58:40;;;;;;;57.45;37.08;;;;;;;1.64;100.00;99169.45;1713715;82;21585;-71
